createdAt,value
2022-12-11T00:00:08.356Z,95543.53
2022-12-11T00:02:56.114Z,95537.39
2022-12-11T00:05:23.449Z,95528.30
2022-12-11T00:07:50.079Z,95523.23
2022-12-11T00:10:16.618Z,95519.21
2022-12-11T00:12:43.348Z,95509.59
2022-12-11T00:15:10.498Z,95509.56
2022-12-11T00:17:38.081Z,95509.14
2022-12-11T00:20:04.990Z,95501.23
2022-12-11T00:22:31.506Z,95500.98
2022-12-11T00:24:58.147Z,95480.42
2022-12-11T00:27:25.109Z,95480.49
2022-12-11T00:29:51.609Z,95483.88
2022-12-11T00:32:18.171Z,95477.57
2022-12-11T00:34:44.830Z,95487.10
2022-12-11T00:37:11.441Z,95474.98
2022-12-11T00:39:39.280Z,95471.79
2022-12-11T00:42:07.302Z,95477.83
2022-12-11T00:44:34.194Z,95478.35
2022-12-11T00:47:01.007Z,95469.80
2022-12-11T00:49:27.547Z,95468.06
2022-12-11T00:51:54.354Z,95469.89
2022-12-11T00:54:20.862Z,95461.18
2022-12-11T00:56:47.389Z,95454.95
2022-12-11T00:59:13.965Z,95453.67
2022-12-11T01:01:40.557Z,95440.90
2022-12-11T01:04:07.539Z,95437.46
2022-12-11T01:06:34.034Z,95429.48
2022-12-11T01:09:19.556Z,95433.83
2022-12-11T01:11:46.293Z,95431.58
2022-12-11T01:14:13.864Z,95428.42
2022-12-11T01:16:40.771Z,95428.02
2022-12-11T01:19:07.577Z,95425.93
2022-12-11T01:21:34.330Z,95419.57
2022-12-11T01:24:00.974Z,95421.59
2022-12-11T01:26:27.520Z,95423.52
2022-12-11T01:28:54.191Z,95422.77
2022-12-11T01:31:21.477Z,95427.01
2022-12-11T01:33:48.168Z,95428.52
2022-12-11T01:36:16.467Z,95420.64
2022-12-11T01:38:43.504Z,95421.40
2022-12-11T01:41:10.145Z,95414.80
2022-12-11T01:43:55.530Z,95415.85
2022-12-11T01:46:22.062Z,95414.59
2022-12-11T01:48:48.689Z,95411.63
2022-12-11T01:51:16.083Z,95405.73
2022-12-11T01:53:45.238Z,95401.22
2022-12-11T01:56:12.546Z,95403.75
2022-12-11T01:58:59.747Z,95397.84
2022-12-11T02:01:32.981Z,95397.67
2022-12-11T02:04:00.550Z,95396.64
2022-12-11T02:06:36.106Z,95395.74
2022-12-11T02:09:04.977Z,95395.05
2022-12-11T02:11:39.237Z,95390.78
2022-12-11T02:14:12.801Z,95386.96
2022-12-11T02:16:45.266Z,95379.69
2022-12-11T02:19:21.345Z,95372.02
2022-12-11T02:21:50.341Z,95366.48
2022-12-11T02:24:22.844Z,95364.34
2022-12-11T02:26:55.291Z,95355.10
2022-12-11T02:29:25.554Z,95354.50
2022-12-11T02:32:02.343Z,95354.95
2022-12-11T02:34:34.577Z,95354.39
2022-12-11T02:37:03.590Z,95353.54
2022-12-11T02:39:31.708Z,95349.84
2022-12-11T02:41:59.162Z,95348.18
2022-12-11T02:44:29.594Z,95343.73
2022-12-11T02:46:57.741Z,95340.66
2022-12-11T02:49:26.168Z,95340.23
2022-12-11T02:51:54.393Z,95335.35
2022-12-11T02:54:24.844Z,95328.29
2022-12-11T02:56:56.591Z,95321.55
2022-12-11T02:59:30.104Z,95324.62
2022-12-11T03:01:56.799Z,95326.36
2022-12-11T03:04:24.439Z,95324.11
2022-12-11T03:06:53.768Z,95326.63
2022-12-11T03:09:20.844Z,95327.16
2022-12-11T03:11:47.599Z,95324.70
2022-12-11T03:14:14.223Z,95320.60
2022-12-11T03:16:59.608Z,95325.17
2022-12-11T03:19:31.978Z,95323.73
2022-12-11T03:22:22.014Z,95317.95
2022-12-11T03:24:51.360Z,95316.29
2022-12-11T03:27:22.263Z,95319.57
2022-12-11T03:29:55.180Z,95312.87
2022-12-11T03:32:23.906Z,95309.38
2022-12-11T03:34:58.156Z,95306.98
2022-12-11T03:37:28.156Z,95302.95
2022-12-11T03:39:58.670Z,95298.16
2022-12-11T03:42:26.286Z,95288.52
2022-12-11T03:44:54.333Z,95283.20
2022-12-11T03:47:23.170Z,95277.06
2022-12-11T03:49:51.870Z,95272.89
2022-12-11T03:52:19.351Z,95268.86
2022-12-11T03:54:48.559Z,95257.84
2022-12-11T03:57:17.454Z,95248.73
2022-12-11T03:59:44.726Z,95237.33
2022-12-11T04:02:11.447Z,95237.77
2022-12-11T04:04:39.374Z,95232.77
2022-12-11T04:07:06.955Z,95232.55
2022-12-11T04:09:33.695Z,95238.50
2022-12-11T04:12:00.386Z,95237.19
2022-12-11T04:14:45.777Z,95222.79
2022-12-11T04:17:32.256Z,95216.45
2022-12-11T04:20:17.609Z,95216.15
2022-12-11T04:23:02.589Z,95218.91
2022-12-11T04:25:29.223Z,95216.33
2022-12-11T04:27:55.861Z,95213.31
2022-12-11T04:30:23.292Z,95216.84
2022-12-11T04:32:50.760Z,95208.20
2022-12-11T04:35:17.560Z,95203.64
2022-12-11T04:37:44.587Z,95203.59
2022-12-11T04:40:13.454Z,95204.38
2022-12-11T04:42:40.098Z,95202.40
2022-12-11T04:45:08.014Z,95206.13
2022-12-11T04:47:35.891Z,95203.20
2022-12-11T04:50:03.314Z,95199.96
2022-12-11T04:52:29.818Z,95198.91
2022-12-11T04:54:56.430Z,95202.95
2022-12-11T04:57:23.394Z,95213.02
2022-12-11T04:59:50.115Z,95216.50
2022-12-11T05:02:16.660Z,95216.98
2022-12-11T05:04:43.398Z,95214.50
2022-12-11T05:07:10.222Z,95215.52
2022-12-11T05:09:37.003Z,95208.00
2022-12-11T05:12:03.662Z,95202.52
2022-12-11T05:14:31.852Z,95204.16
2022-12-11T05:16:59.091Z,95203.17
2022-12-11T05:19:26.477Z,95204.72
2022-12-11T05:21:53.286Z,95203.21
2022-12-11T05:24:20.014Z,95190.92
2022-12-11T05:26:46.623Z,95203.16
2022-12-11T05:29:13.254Z,95206.58
2022-12-11T05:31:39.903Z,95208.61
2022-12-11T05:34:06.433Z,95208.22
2022-12-11T05:36:34.398Z,95206.97
2022-12-11T05:39:01.406Z,95208.17
2022-12-11T05:41:29.111Z,95207.65
2022-12-11T05:43:55.948Z,95207.48
2022-12-11T05:46:24.131Z,95213.30
2022-12-11T05:48:52.344Z,95216.80
2022-12-11T05:51:19.300Z,95218.73
2022-12-11T05:53:49.197Z,95221.70
2022-12-11T05:56:17.226Z,95218.61
2022-12-11T05:58:44.393Z,95212.09
2022-12-11T06:01:14.275Z,95216.48
2022-12-11T06:03:40.917Z,95216.86
2022-12-11T06:06:07.704Z,95212.59
2022-12-11T06:08:34.708Z,95205.28
2022-12-11T06:11:01.490Z,95210.63
2022-12-11T06:13:28.488Z,95209.08
2022-12-11T06:15:55.443Z,95212.77
2022-12-11T06:18:22.063Z,95226.89
2022-12-11T06:20:48.585Z,95225.60
2022-12-11T06:23:15.092Z,95225.80
2022-12-11T06:25:41.784Z,95227.88
2022-12-11T06:28:08.593Z,95234.13
2022-12-11T06:30:39.042Z,95232.53
2022-12-11T06:33:06.353Z,95239.69
2022-12-11T06:35:38.585Z,95244.95
2022-12-11T06:38:08.857Z,95249.23
2022-12-11T06:40:35.528Z,95264.95
2022-12-11T06:43:02.955Z,95261.10
2022-12-11T06:45:30.243Z,95256.17
2022-12-11T06:47:57.739Z,95261.09
2022-12-11T06:50:24.674Z,95266.48
2022-12-11T06:52:51.475Z,95274.99
2022-12-11T06:55:18.121Z,95287.41
2022-12-11T06:57:44.740Z,95290.74
2022-12-11T07:00:11.527Z,95285.73
2022-12-11T07:02:38.282Z,95283.33
2022-12-11T07:05:05.341Z,95286.67
2022-12-11T07:07:32.018Z,95290.94
2022-12-11T07:10:02.740Z,95295.94
2022-12-11T07:12:34.660Z,95297.41
2022-12-11T07:15:01.547Z,95299.73
2022-12-11T07:17:28.597Z,95300.87
2022-12-11T07:19:55.547Z,95296.09
2022-12-11T07:22:22.077Z,95292.73
2022-12-11T07:24:48.582Z,95298.46
2022-12-11T07:27:15.252Z,95301.20
2022-12-11T07:29:41.785Z,95309.73
2022-12-11T07:32:08.533Z,95319.06
2022-12-11T07:34:35.230Z,95328.73
2022-12-11T07:37:01.800Z,95333.45
2022-12-11T07:39:28.535Z,95346.46
2022-12-11T07:41:55.284Z,95355.30
2022-12-11T07:44:21.759Z,95359.76
2022-12-11T07:46:48.770Z,95366.70
2022-12-11T07:49:15.388Z,95367.95
2022-12-11T07:51:42.567Z,95383.78
2022-12-11T07:54:15.888Z,95394.55
2022-12-11T07:56:44.070Z,95402.33
2022-12-11T07:59:11.053Z,95411.02
2022-12-11T08:01:38.437Z,95420.47
2022-12-11T08:04:06.134Z,95424.23
2022-12-11T08:06:34.863Z,95431.73
2022-12-11T08:09:02.772Z,95438.91
2022-12-11T08:11:29.632Z,95437.89
2022-12-11T08:13:56.270Z,95436.24
2022-12-11T08:16:23.219Z,95439.17
2022-12-11T08:18:50.505Z,95440.65
2022-12-11T08:21:19.083Z,95449.48
2022-12-11T08:23:46.212Z,95462.70
2022-12-11T08:26:33.452Z,95479.03
2022-12-11T08:29:01.425Z,95488.87
2022-12-11T08:31:28.552Z,95503.58
2022-12-11T08:33:56.541Z,95514.52
2022-12-11T08:36:23.265Z,95521.63
2022-12-11T08:38:50.455Z,95523.41
2022-12-11T08:41:19.007Z,95533.78
2022-12-11T08:43:46.157Z,95536.96
2022-12-11T08:46:13.100Z,95530.87
2022-12-11T08:48:40.964Z,95528.35
2022-12-11T08:51:09.915Z,95529.23
2022-12-11T08:53:36.695Z,95540.42
2022-12-11T08:56:04.310Z,95554.21
2022-12-11T08:58:30.806Z,95558.00
2022-12-11T09:00:57.507Z,95554.98
2022-12-11T09:03:24.784Z,95560.61
2022-12-11T09:05:51.520Z,95561.58
2022-12-11T09:08:18.237Z,95562.13
2022-12-11T09:10:44.842Z,95564.24
2022-12-11T09:13:11.431Z,95571.50
2022-12-11T09:15:40.031Z,95574.52
2022-12-11T09:18:07.136Z,95589.36
2022-12-11T09:20:34.003Z,95609.92
2022-12-11T09:23:00.849Z,95631.55
2022-12-11T09:25:27.425Z,95643.92
2022-12-11T09:27:54.021Z,95649.77
2022-12-11T09:30:21.171Z,95644.27
2022-12-11T09:32:47.844Z,95627.52
2022-12-11T09:35:14.387Z,95616.55
2022-12-11T09:37:40.982Z,95618.06
2022-12-11T09:40:09.533Z,95627.02
2022-12-11T09:42:36.197Z,95644.50
2022-12-11T09:45:04.173Z,95660.81
2022-12-11T09:47:35.463Z,95680.67
2022-12-11T09:50:20.813Z,95691.36
2022-12-11T09:52:47.522Z,95698.43
2022-12-11T09:55:16.206Z,95710.13
2022-12-11T09:58:01.847Z,95719.46
2022-12-11T10:00:31.911Z,95723.65
2022-12-11T10:02:58.840Z,95722.09
2022-12-11T10:05:33.745Z,95715.77
2022-12-11T10:08:10.173Z,95702.29
2022-12-11T10:10:46.783Z,95694.66
2022-12-11T10:13:13.354Z,95707.30
2022-12-11T10:16:00.711Z,95719.73
2022-12-11T10:18:28.544Z,95717.95
2022-12-11T10:20:56.427Z,95707.75
2022-12-11T10:23:35.658Z,95710.74
2022-12-11T10:26:02.350Z,95722.05
2022-12-11T10:28:28.921Z,95729.67
2022-12-11T10:30:58.783Z,95732.82
2022-12-11T10:33:40.827Z,95733.20
2022-12-11T10:36:08.795Z,95738.52
2022-12-11T10:38:41.841Z,95742.67
2022-12-11T10:41:13.329Z,95746.27
2022-12-11T10:43:41.812Z,95758.73
2022-12-11T10:46:25.699Z,95773.36
2022-12-11T10:48:53.678Z,95775.11
2022-12-11T10:51:34.404Z,95770.90
2022-12-11T10:54:07.420Z,95775.59
2022-12-11T10:56:35.554Z,95764.59
2022-12-11T10:59:02.889Z,95766.77
2022-12-11T11:01:31.205Z,95770.86
2022-12-11T11:04:14.981Z,95777.64
2022-12-11T11:06:41.766Z,95793.13
2022-12-11T11:09:27.710Z,95802.73
2022-12-11T11:11:54.212Z,95817.52
2022-12-11T11:14:22.488Z,95826.77
2022-12-11T11:16:50.101Z,95834.00
2022-12-11T11:19:17.157Z,95831.99
2022-12-11T11:21:48.362Z,95834.23
2022-12-11T11:24:34.189Z,95846.70
2022-12-11T11:27:16.496Z,95853.54
2022-12-11T11:29:46.615Z,95857.14
2022-12-11T11:32:21.859Z,95859.80
2022-12-11T11:34:48.484Z,95863.88
2022-12-11T11:37:35.585Z,95877.29
2022-12-11T11:40:28.759Z,95881.20
2022-12-11T11:43:14.722Z,95883.09
2022-12-11T11:45:47.026Z,95877.45
2022-12-11T11:48:25.540Z,95882.54
2022-12-11T11:50:53.332Z,95884.08
2022-12-11T11:53:37.397Z,95893.41
2022-12-11T11:56:21.591Z,95903.55
2022-12-11T11:58:48.270Z,95902.55
2022-12-11T12:01:17.017Z,95907.42
2022-12-11T12:03:44.732Z,95910.25
2022-12-11T12:06:31.647Z,95919.35
2022-12-11T12:09:12.409Z,95919.02
2022-12-11T12:11:44.935Z,95911.69
2022-12-11T12:17:35.550Z,95918.39
2022-12-11T12:20:19.414Z,95913.70
2022-12-11T12:22:56.372Z,95922.77
2022-12-11T12:25:41.558Z,95935.30
2022-12-11T12:28:13.871Z,95944.36
2022-12-11T12:30:49.226Z,95956.95
2022-12-11T12:33:25.498Z,95968.17
2022-12-11T12:36:03.468Z,95971.35
2022-12-11T12:38:38.882Z,95975.40
2022-12-11T12:41:41.956Z,95976.77
2022-12-11T12:44:15.940Z,95981.17
2022-12-11T12:46:42.510Z,95988.48
2022-12-11T12:49:12.115Z,95995.20
2022-12-11T12:51:40.061Z,96003.42
2022-12-11T12:54:12.346Z,95999.96
2022-12-11T12:56:40.612Z,96004.53
2022-12-11T12:59:18.201Z,96008.05
2022-12-11T13:01:51.709Z,96004.88
2022-12-11T13:04:54.330Z,96013.40
2022-12-11T13:07:18.492Z,96022.13
2022-12-11T13:09:55.713Z,96024.52
2022-12-11T13:12:30.443Z,96023.33
2022-12-11T13:14:57.214Z,96018.32
2022-12-11T13:17:25.936Z,96018.01
2022-12-11T13:20:11.297Z,96019.45
2022-12-11T13:22:47.073Z,96024.04
2022-12-11T13:25:22.317Z,96026.70
2022-12-11T13:27:49.421Z,96032.51
2022-12-11T13:30:16.223Z,96037.60
2022-12-11T13:32:49.048Z,96037.66
2022-12-11T13:35:17.210Z,96031.48
2022-12-11T13:37:44.516Z,96035.14
2022-12-11T13:40:14.273Z,96033.44
2022-12-11T13:42:49.832Z,96033.61
2022-12-11T13:45:22.498Z,96031.05
2022-12-11T13:47:49.611Z,96032.23
2022-12-11T13:50:20.189Z,96040.50
2022-12-11T13:52:53.771Z,96045.31
2022-12-11T13:55:22.787Z,96042.61
2022-12-11T13:57:49.396Z,96041.73
2022-12-11T14:00:21.197Z,96037.37
2022-12-11T14:02:48.333Z,96039.10
2022-12-11T14:05:15.113Z,96046.36
2022-12-11T14:08:02.131Z,96047.41
2022-12-11T14:10:32.081Z,96049.33
2022-12-11T14:12:58.610Z,96039.12
2022-12-11T14:15:26.663Z,96039.27
2022-12-11T14:17:54.074Z,96037.45
2022-12-11T14:20:24.002Z,96043.70
2022-12-11T14:22:51.134Z,96051.44
2022-12-11T14:25:26.333Z,96064.80
2022-12-11T14:27:54.508Z,96073.02
2022-12-11T14:30:26.676Z,96074.89
2022-12-11T14:32:56.144Z,96079.70
2022-12-11T14:35:37.086Z,96084.39
2022-12-11T14:38:22.485Z,96094.33
2022-12-11T14:40:52.847Z,96100.63
2022-12-11T14:43:22.786Z,96104.45
2022-12-11T14:45:53.644Z,96108.39
2022-12-11T14:48:23.301Z,96112.80
2022-12-11T14:50:54.350Z,96113.70
2022-12-11T14:53:34.505Z,96121.17
2022-12-11T14:56:03.254Z,96132.02
2022-12-11T14:58:30.740Z,96143.44
2022-12-11T15:01:02.185Z,96143.80
2022-12-11T15:03:31.838Z,96149.89
2022-12-11T15:05:59.216Z,96147.07
2022-12-11T15:08:33.203Z,96144.41
2022-12-11T15:11:03.934Z,96146.58
2022-12-11T15:13:31.366Z,96151.16
2022-12-11T15:15:58.598Z,96150.73
2022-12-11T15:18:36.272Z,96162.96
2022-12-11T15:21:06.362Z,96168.48
2022-12-11T15:23:37.969Z,96172.07
2022-12-11T15:26:04.834Z,96170.89
2022-12-11T15:28:33.391Z,96169.91
2022-12-11T15:31:01.540Z,96169.89
2022-12-11T15:33:34.063Z,96168.70
2022-12-11T15:36:05.893Z,96169.33
2022-12-11T15:38:34.827Z,96179.90
2022-12-11T15:41:01.933Z,96184.27
2022-12-11T15:43:30.828Z,96187.01
2022-12-11T15:45:57.433Z,96184.41
2022-12-11T15:48:24.150Z,96183.63
2022-12-11T15:50:51.002Z,96190.83
2022-12-11T15:53:17.578Z,96187.05
2022-12-11T15:55:44.356Z,96190.09
2022-12-11T15:58:18.896Z,96192.16
2022-12-11T16:00:46.191Z,96191.59
2022-12-11T16:03:13.987Z,96192.54
2022-12-11T16:05:41.304Z,96194.98
2022-12-11T16:08:12.268Z,96190.69
2022-12-11T16:10:38.792Z,96189.17
2022-12-11T16:13:05.325Z,96193.61
2022-12-11T16:15:31.889Z,96197.20
2022-12-11T16:18:02.625Z,96196.98
2022-12-11T16:20:30.446Z,96193.14
2022-12-11T16:23:17.607Z,96189.17
2022-12-11T16:25:58.514Z,96197.39
2022-12-11T16:28:25.168Z,96196.61
2022-12-11T16:30:51.737Z,96197.13
2022-12-11T16:33:18.453Z,96190.02
2022-12-11T16:35:44.987Z,96193.70
2022-12-11T16:38:11.607Z,96191.06
2022-12-11T16:40:38.392Z,96199.27
2022-12-11T16:43:05.167Z,96202.11
2022-12-11T16:45:32.565Z,96205.55
2022-12-11T16:48:01.855Z,96207.31
2022-12-11T16:50:28.588Z,96209.42
2022-12-11T16:52:55.947Z,96206.30
2022-12-11T16:55:22.474Z,96201.65
2022-12-11T16:57:49.213Z,96198.35
2022-12-11T17:00:16.232Z,96201.33
2022-12-11T17:02:43.347Z,96200.51
2022-12-11T17:05:10.700Z,96203.05
2022-12-11T17:07:37.709Z,96210.97
2022-12-11T17:10:04.569Z,96221.50
2022-12-11T17:12:31.251Z,96227.80
2022-12-11T17:14:57.922Z,96227.91
2022-12-11T17:17:24.838Z,96231.30
2022-12-11T17:19:51.403Z,96239.67
2022-12-11T17:22:18.511Z,96247.30
2022-12-11T17:24:45.086Z,96250.54
2022-12-11T17:27:12.034Z,96253.13
2022-12-11T17:29:39.590Z,96255.29
2022-12-11T17:32:06.379Z,96258.00
2022-12-11T17:34:37.841Z,96260.84
2022-12-11T17:37:05.661Z,96263.98
2022-12-11T17:39:32.387Z,96269.13
2022-12-11T17:41:58.907Z,96277.52
2022-12-11T17:44:26.177Z,96283.73
2022-12-11T17:46:52.866Z,96290.07
2022-12-11T17:49:19.573Z,96292.88
2022-12-11T17:51:47.254Z,96293.92
2022-12-11T17:54:14.065Z,96294.27
2022-12-11T17:56:40.839Z,96293.84
2022-12-11T17:59:07.369Z,96289.63
2022-12-11T18:01:34.149Z,96287.23
2022-12-11T18:04:01.406Z,96291.70
2022-12-11T18:06:28.929Z,96296.55
2022-12-11T18:08:56.817Z,96299.71
2022-12-11T18:11:23.751Z,96298.98
2022-12-11T18:13:52.053Z,96301.52
2022-12-11T18:16:24.655Z,96310.56
2022-12-11T18:18:51.637Z,96309.81
2022-12-11T18:21:20.909Z,96311.71
2022-12-11T18:23:49.617Z,96312.45
2022-12-11T18:26:17.677Z,96317.90
2022-12-11T18:28:44.715Z,96322.52
2022-12-11T18:31:13.022Z,96319.27
2022-12-11T18:33:40.808Z,96319.41
2022-12-11T18:36:07.657Z,96321.67
2022-12-11T18:38:34.217Z,96330.49
2022-12-11T18:41:04.761Z,96333.84
2022-12-11T18:43:31.289Z,96329.88
2022-12-11T18:45:57.942Z,96328.08
2022-12-11T18:48:24.448Z,96333.65
2022-12-11T18:50:51.670Z,96335.80
2022-12-11T18:53:19.025Z,96343.20
2022-12-11T18:55:46.792Z,96350.52
2022-12-11T18:58:15.571Z,96347.83
2022-12-11T19:00:42.894Z,96344.32
2022-12-11T19:03:10.176Z,96334.38
2022-12-11T19:05:39.737Z,96330.96
2022-12-11T19:08:06.372Z,96330.13
2022-12-11T19:10:33.056Z,96333.39
2022-12-11T19:12:59.636Z,96333.13
2022-12-11T19:15:27.193Z,96341.99
2022-12-11T19:17:53.886Z,96351.23
2022-12-11T19:23:07.129Z,96364.59
2022-12-11T19:25:34.183Z,96362.75
2022-12-11T19:28:01.215Z,96374.77
2022-12-11T19:30:27.999Z,96383.25
2022-12-11T19:32:54.636Z,96394.95
2022-12-11T19:35:21.346Z,96397.84
2022-12-11T19:37:48.006Z,96404.34
2022-12-11T19:40:15.140Z,96408.23
2022-12-11T19:42:41.801Z,96412.27
2022-12-11T19:45:09.918Z,96406.21
2022-12-11T19:47:36.906Z,96404.77
2022-12-11T19:50:04.003Z,96403.04
2022-12-11T19:52:30.585Z,96401.24
2022-12-11T19:55:00.330Z,96394.63
2022-12-11T19:57:27.027Z,96390.83
2022-12-11T19:59:57.227Z,96387.98
2022-12-11T20:02:24.537Z,96392.64
2022-12-11T20:04:51.361Z,96391.48
2022-12-11T20:07:18.424Z,96382.44
2022-12-11T20:09:44.989Z,96383.52
2022-12-11T20:12:11.986Z,96380.58
2022-12-11T20:14:38.820Z,96381.70
2022-12-11T20:17:14.346Z,96382.05
2022-12-11T20:19:41.626Z,96383.09
2022-12-11T20:22:08.628Z,96388.74
2022-12-11T20:24:35.645Z,96402.27
2022-12-11T20:27:02.643Z,96401.31
2022-12-11T20:29:29.263Z,96401.21
2022-12-11T20:31:58.878Z,96412.81
2022-12-11T20:34:26.320Z,96417.83
2022-12-11T20:36:53.514Z,96415.91
2022-12-11T20:39:20.331Z,96417.54
2022-12-11T20:41:46.975Z,96414.84
2022-12-11T20:44:14.119Z,96416.15
2022-12-11T20:46:41.106Z,96417.92
2022-12-11T20:49:12.105Z,96418.70
2022-12-11T20:51:39.225Z,96419.50
2022-12-11T20:54:05.926Z,96413.40
2022-12-11T20:56:32.709Z,96418.09
2022-12-11T20:59:00.120Z,96425.90
2022-12-11T21:01:28.164Z,96443.24
2022-12-11T21:03:54.913Z,96446.30
2022-12-11T21:06:25.190Z,96444.00
2022-12-11T21:08:52.510Z,96438.50
2022-12-11T21:11:19.726Z,96441.80
2022-12-11T21:13:50.675Z,96443.66
2022-12-11T21:16:18.131Z,96444.51
2022-12-11T21:18:45.990Z,96443.42
2022-12-11T21:21:13.311Z,96441.52
2022-12-11T21:23:40.049Z,96441.48
2022-12-11T21:26:06.630Z,96444.91
2022-12-11T21:28:35.440Z,96443.52
2022-12-11T21:31:03.915Z,96440.70
2022-12-11T21:33:31.096Z,96434.41
2022-12-11T21:35:58.565Z,96430.10
2022-12-11T21:38:25.706Z,96433.11
2022-12-11T21:40:53.153Z,96437.80
2022-12-11T21:43:19.955Z,96438.15
2022-12-11T21:46:02.658Z,96438.89
2022-12-11T21:48:29.553Z,96435.74
2022-12-11T21:51:03.416Z,96436.59
2022-12-11T21:53:30.004Z,96429.86
2022-12-11T21:55:57.166Z,96429.98
2022-12-11T21:58:23.776Z,96423.00
2022-12-11T22:00:50.510Z,96423.40
2022-12-11T22:03:17.668Z,96426.90
2022-12-11T22:05:44.191Z,96421.94
2022-12-11T22:08:10.875Z,96425.28
2022-12-11T22:10:37.622Z,96427.83
2022-12-11T22:13:04.520Z,96428.77
2022-12-11T22:15:31.960Z,96424.99
2022-12-11T22:17:58.610Z,96423.27
2022-12-11T22:20:25.268Z,96416.83
2022-12-11T22:22:51.860Z,96415.70
2022-12-11T22:25:18.418Z,96413.15
2022-12-11T22:27:44.900Z,96415.32
2022-12-11T22:30:11.774Z,96420.20
2022-12-11T22:32:38.856Z,96423.82
2022-12-11T22:35:05.959Z,96421.96
2022-12-11T22:37:32.671Z,96421.07
2022-12-11T22:39:59.319Z,96420.23
2022-12-11T22:42:26.178Z,96424.63
2022-12-11T22:44:52.843Z,96418.94
2022-12-11T22:47:19.377Z,96413.58
2022-12-11T22:49:46.013Z,96414.73
2022-12-11T22:52:12.861Z,96418.21
2022-12-11T22:54:40.006Z,96418.52
2022-12-11T22:57:06.786Z,96423.28
2022-12-11T22:59:33.595Z,96427.31
2022-12-11T23:02:00.210Z,96432.39
2022-12-11T23:04:26.895Z,96439.45
2022-12-11T23:06:53.510Z,96447.44
2022-12-11T23:09:20.211Z,96453.50
2022-12-11T23:11:46.730Z,96459.77
2022-12-11T23:14:14.812Z,96466.41
2022-12-11T23:16:41.831Z,96470.13
2022-12-11T23:19:09.037Z,96466.35
2022-12-11T23:21:36.107Z,96464.69
2022-12-11T23:24:03.376Z,96457.76
2022-12-11T23:26:30.686Z,96457.50
2022-12-11T23:28:57.937Z,96462.02
2022-12-11T23:31:25.710Z,96468.33
2022-12-11T23:33:52.814Z,96477.15
2022-12-11T23:36:19.496Z,96484.81
2022-12-11T23:38:50.981Z,96492.33
2022-12-11T23:41:21.443Z,96495.45
2022-12-11T23:43:48.299Z,96494.31
2022-12-11T23:46:20.236Z,96491.51
2022-12-11T23:48:47.775Z,96488.42
2022-12-11T23:51:16.298Z,96496.61
2022-12-11T23:53:43.224Z,96497.14
2022-12-11T23:56:11.928Z,96501.64
2022-12-11T23:58:39.167Z,96502.68
